Terminal Aerodrome Forecast
Issued by NWS Wilmington, OH

Current Version | Previous Version | Text Only | Print | Product List | Glossary Off
Versions: 1 2 3 4 5 6 7 8 9 10 11 12 13 14 15 16 17 18 19 20 21 22 23 24 25 26 27 28 29 30 31 32 33

000
FTUS41 KILN 211300 AAA
TAFCVG
TAF AMD
KCVG 211304Z 2113/2218 25007KT P6SM BKN017 BKN090 BKN150
     FM211500 26015G25KT P6SM SCT035
     FM211600 28016G26KT P6SM SCT040
     FM212000 32017G27KT P6SM BKN050
     FM220200 32012KT P6SM OVC025
     FM221300 34007KT P6SM SCT025=

USA.gov is the U.S. government's official web portal to all federal, state and local government web resources and services.